Time;durP1;ratioP1;P1;durP2;ratioP2;P2;SDS_P1;SDS_P2;PMS_P1;PMS_P2;Temp;Humidity;BMP_temperature;BMP_pressure;BME280_temperature;BME280_humidity;BME280_pressure;Samples;Min_cycle;Max_cycle;Signal;HPM_P1;HPM_P2
2022/01/31 00:02:26;;;;;;;19.60;3.50;;;;;;;-146.48;100.00;28528.09;5303185;28;20107;-68
2022/01/31 00:04:58;;;;;;;15.93;3.67;;;;;;;-146.48;100.00;28591.72;5303645;28;20043;-68
2022/01/31 00:07:29;;;;;;;17.30;3.03;;;;;;;-146.48;100.00;28536.06;5303927;28;20048;-68
2022/01/31 00:10:06;;;;;;;12.10;2.83;;;;;;;-146.48;100.00;28478.41;5302515;28;20024;-68
2022/01/31 00:12:49;;;;;;;15.63;2.97;;;;;;;-146.48;100.00;28444.63;5303897;28;20027;-68
2022/01/31 00:15:21;;;;;;;13.00;2.45;;;;;;;-146.48;100.00;28353.19;5303387;28;20082;-68
2022/01/31 00:17:52;;;;;;;14.85;3.17;;;;;;;-146.48;100.00;28396.91;5302836;28;20051;-68
2022/01/31 00:20:23;;;;;;;17.45;3.92;;;;;;;-146.48;100.00;28390.94;5303355;28;20086;-68
2022/01/31 00:22:55;;;;;;;16.77;3.30;;;;;;;-146.48;100.00;28418.78;5303204;28;20396;-69
2022/01/31 00:25:26;;;;;;;17.55;2.08;;;;;;;-146.48;100.00;28470.47;5302770;28;20417;-68
2022/01/31 00:27:57;;;;;;;16.65;2.90;;;;;;;-146.48;100.00;28458.53;5302893;28;20119;-69
2022/01/31 00:30:29;;;;;;;12.45;2.92;;;;;;;-146.48;100.00;28516.19;5302770;28;20361;-69
2022/01/31 00:33:00;;;;;;;16.35;3.00;;;;;;;-146.48;100.00;28631.47;5303037;28;20456;-68
2022/01/31 00:35:32;;;;;;;19.85;2.97;;;;;;;-146.48;100.00;28697.06;5303404;28;20040;-69
2022/01/31 00:38:03;;;;;;;19.92;3.08;;;;;;;-146.48;100.00;28854.09;5302200;28;20028;-68
2022/01/31 00:40:38;;;;;;;17.15;2.97;;;;;;;-146.48;100.00;29015.09;5303508;28;20031;-68
2022/01/31 00:43:14;;;;;;;13.55;2.70;;;;;;;-146.48;100.00;29072.75;5302720;28;20072;-68
2022/01/31 00:45:58;;;;;;;15.40;3.20;;;;;;;-146.48;100.00;29215.91;5302444;28;20016;-68
2022/01/31 00:48:34;;;;;;;16.02;2.72;;;;;;;-146.48;100.00;29617.50;5303274;28;20032;-68
2022/01/31 00:51:05;;;;;;;12.35;3.10;;;;;;;-146.48;100.00;30015.16;5302774;28;20505;-68
2022/01/31 00:53:36;;;;;;;20.83;3.00;;;;;;;-146.48;100.00;30639.59;5302434;28;20075;-68
2022/01/31 00:56:08;;;;;;;14.63;3.35;;;;;;;-146.48;100.00;31079.13;5302433;28;20016;-68
2022/01/31 00:58:39;;;;;;;14.35;3.08;;;;;;;-146.48;100.00;31584.34;5302620;28;20031;-69
2022/01/31 01:01:10;;;;;;;18.30;3.13;;;;;;;-146.48;100.00;32728.31;5302659;28;20024;-68
2022/01/31 01:03:41;;;;;;;18.73;2.85;;;;;;;-146.48;100.00;33295.47;5303095;28;20028;-68
2022/01/31 01:06:13;;;;;;;21.88;3.80;;;;;;;-146.48;100.00;33619.84;5301498;28;20063;-68
2022/01/31 01:08:44;;;;;;;15.43;3.00;;;;;;;-146.48;100.00;33980.13;5302511;28;20384;-68
2022/01/31 01:11:15;;;;;;;14.93;3.22;;;;;;;-146.48;100.00;34326.47;5302505;28;20107;-68
2022/01/31 01:13:47;;;;;;;15.35;3.92;;;;;;;-146.48;100.00;34605.16;5302230;28;20013;-68
2022/01/31 01:16:18;;;;;;;14.88;2.58;;;;;;;-146.48;100.00;34774.38;5302259;28;20062;-68
2022/01/31 01:18:49;;;;;;;18.65;3.65;;;;;;;-146.48;100.00;34991.38;5302802;28;20027;-68
2022/01/31 01:21:20;;;;;;;19.67;4.00;;;;;;;-146.48;100.00;35188.50;5301378;28;20035;-69
2022/01/31 01:23:52;;;;;;;18.48;2.97;;;;;;;-146.48;100.00;35475.22;5302933;28;20027;-69
2022/01/31 01:26:23;;;;;;;23.17;4.35;;;;;;;-146.48;100.00;35777.91;5302556;28;20024;-70
2022/01/31 01:28:54;;;;;;;18.88;3.50;;;;;;;-146.48;100.00;36140.34;5301657;28;20057;-68
2022/01/31 01:31:26;;;;;;;16.58;2.85;;;;;;;-146.48;100.00;36522.75;5302456;28;20034;-68
2022/01/31 01:33:58;;;;;;;16.00;2.58;;;;;;;-146.48;100.00;36815.53;5301209;28;20463;-68
2022/01/31 01:36:31;;;;;;;25.10;4.35;;;;;;;-146.48;100.00;37526.69;5302856;28;20026;-68
2022/01/31 01:39:02;;;;;;;18.92;3.35;;;;;;;-146.48;100.00;37783.72;5302072;28;20496;-68
2022/01/31 01:41:33;;;;;;;20.52;3.55;;;;;;;-146.48;100.00;60459.00;5302300;28;20044;-68
2022/01/31 01:44:05;;;;;;;14.45;2.80;;;;;;;-146.48;100.00;60459.00;5301911;28;20034;-69
2022/01/31 01:46:36;;;;;;;15.10;3.20;;;;;;;-146.48;100.00;60459.00;5302458;28;20032;-69
2022/01/31 01:49:08;;;;;;;19.00;2.72;;;;;;;-146.48;100.00;60459.00;5301167;28;20123;-70
2022/01/31 01:51:39;;;;;;;21.60;4.40;;;;;;;-146.48;100.00;60459.00;5302716;28;20035;-69
2022/01/31 01:54:10;;;;;;;19.15;4.53;;;;;;;-146.48;100.00;60459.00;5301911;28;20039;-69
2022/01/31 01:56:41;;;;;;;14.82;3.55;;;;;;;-146.48;100.00;60459.00;5301751;28;20037;-69
2022/01/31 01:59:13;;;;;;;16.85;4.80;;;;;;;-146.48;100.00;60459.00;5302284;28;20031;-69
2022/01/31 02:01:44;;;;;;;14.23;3.35;;;;;;;-146.48;100.00;60459.00;5306309;28;20035;-69
2022/01/31 02:04:15;;;;;;;19.98;4.38;;;;;;;-146.48;100.00;60459.00;5305916;28;20032;-69
2022/01/31 02:06:47;;;;;;;10.95;2.90;;;;;;;-146.48;100.00;60459.00;5306115;28;20048;-69
2022/01/31 02:09:22;;;;;;;18.10;3.70;;;;;;;-146.48;100.00;60459.00;5304976;28;20435;-69
2022/01/31 02:11:57;;;;;;;15.30;3.25;;;;;;;-146.48;100.00;60459.00;5306266;28;20464;-68
2022/01/31 02:14:31;;;;;;;15.45;2.38;;;;;;;-146.48;100.00;60459.00;5306463;28;20119;-69
2022/01/31 02:17:02;;;;;;;18.13;2.67;;;;;;;-146.48;100.00;60459.00;5304992;28;20030;-69
2022/01/31 02:19:34;;;;;;;15.88;3.92;;;;;;;-146.48;100.00;60459.00;5306156;28;20028;-69
2022/01/31 02:22:05;;;;;;;9.23;2.63;;;;;;;-146.48;100.00;60459.00;5305869;28;20456;-68
2022/01/31 02:24:36;;;;;;;12.38;3.05;;;;;;;-146.48;100.00;60459.00;5305675;28;20038;-68
2022/01/31 02:27:07;;;;;;;16.33;2.70;;;;;;;-146.48;100.00;60459.00;5305557;28;20115;-69
2022/01/31 02:29:39;;;;;;;9.52;2.17;;;;;;;-146.48;100.00;60459.00;5306076;28;20039;-68
2022/01/31 02:32:12;;;;;;;11.35;2.25;;;;;;;-146.48;100.00;60459.00;5304604;28;20366;-68
2022/01/31 02:34:43;;;;;;;13.10;3.58;;;;;;;-146.48;100.00;60459.00;5306176;28;20039;-68
2022/01/31 02:37:15;;;;;;;14.60;3.10;;;;;;;-146.48;100.00;60459.00;5304609;28;20028;-68
2022/01/31 02:39:46;;;;;;;13.35;3.38;;;;;;;-146.48;100.00;60459.00;5305919;28;20031;-68
2022/01/31 02:42:18;;;;;;;8.63;3.60;;;;;;;-146.48;100.00;60459.00;5305293;28;20506;-68
2022/01/31 02:44:49;;;;;;;8.40;3.17;;;;;;;-146.48;100.00;60459.00;5305020;28;20032;-68
2022/01/31 02:47:25;;;;;;;11.38;3.25;;;;;;;-146.48;100.00;60459.00;5305122;28;20024;-68
2022/01/31 02:50:02;;;;;;;9.77;3.55;;;;;;;-146.48;100.00;60459.00;5305387;28;20488;-69
2022/01/31 02:52:36;;;;;;;12.40;3.53;;;;;;;-146.48;100.00;60459.00;5304947;28;20114;-68
2022/01/31 02:55:07;;;;;;;8.15;3.22;;;;;;;-146.48;100.00;60459.00;5304867;28;20111;-68
2022/01/31 02:57:39;;;;;;;8.10;3.03;;;;;;;-146.48;100.00;60459.00;5305737;28;20099;-68
2022/01/31 03:00:11;;;;;;;9.73;2.88;;;;;;;-146.48;100.00;60459.00;5304262;28;20031;-68
2022/01/31 03:02:42;;;;;;;10.07;3.85;;;;;;;-146.48;100.00;60459.00;5305448;28;20116;-68
2022/01/31 03:05:13;;;;;;;9.82;3.78;;;;;;;-146.48;100.00;60459.00;5304062;28;20115;-68
2022/01/31 03:07:44;;;;;;;10.93;3.65;;;;;;;-146.48;100.00;60459.00;5305060;28;20056;-68
2022/01/31 03:10:16;;;;;;;15.77;4.65;;;;;;;-146.48;100.00;60459.00;5304311;28;20035;-68
2022/01/31 03:12:47;;;;;;;10.35;3.83;;;;;;;-146.48;100.00;60459.00;5294444;28;20497;-68
2022/01/31 03:15:18;;;;;;;15.32;3.58;;;;;;;-146.48;100.00;60459.00;5303446;28;20098;-68
2022/01/31 03:17:50;;;;;;;9.77;3.00;;;;;;;-146.48;100.00;60459.00;5305215;28;20024;-68
2022/01/31 03:20:23;;;;;;;9.70;2.65;;;;;;;-146.48;100.00;60459.00;5303869;28;20027;-67
2022/01/31 03:22:54;;;;;;;16.05;3.33;;;;;;;-146.48;100.00;60459.00;5304747;28;20037;-68
2022/01/31 03:25:26;;;;;;;15.07;2.53;;;;;;;-146.48;100.00;60459.00;5304649;28;20024;-68
2022/01/31 03:27:57;;;;;;;11.70;2.25;;;;;;;-146.48;100.00;60459.00;5303388;28;20471;-68
2022/01/31 03:30:29;;;;;;;16.30;3.70;;;;;;;-146.48;100.00;60459.00;5304791;28;20528;-67
2022/01/31 03:33:00;;;;;;;16.23;2.83;;;;;;;-146.48;100.00;60459.00;5304128;28;20039;-68
2022/01/31 03:35:31;;;;;;;15.90;2.38;;;;;;;-146.48;100.00;60459.00;5303986;28;20380;-67
2022/01/31 03:38:02;;;;;;;9.35;1.77;;;;;;;-146.48;100.00;60459.00;5304247;28;20024;-68
2022/01/31 03:40:34;;;;;;;13.77;1.83;;;;;;;-146.48;100.00;60459.00;5303658;28;20036;-68
2022/01/31 03:43:05;;;;;;;18.58;2.65;;;;;;;-146.48;100.00;60459.00;5303760;28;20486;-67
2022/01/31 03:45:36;;;;;;;12.98;1.80;;;;;;;-146.48;100.00;60459.00;5304609;28;20028;-67
2022/01/31 03:48:08;;;;;;;14.30;2.10;;;;;;;-146.48;100.00;60459.00;5303191;28;20032;-67
2022/01/31 03:50:40;;;;;;;14.27;3.47;;;;;;;-146.48;100.00;60459.00;5304554;28;20032;-67
2022/01/31 03:53:11;;;;;;;9.60;1.30;;;;;;;-146.48;100.00;60459.00;5303780;28;20024;-66
2022/01/31 03:55:42;;;;;;;15.73;1.83;;;;;;;-146.48;100.00;60459.00;5303557;28;20028;-67
2022/01/31 03:58:13;;;;;;;13.00;1.27;;;;;;;-146.48;100.00;60459.00;5303755;28;20024;-68
2022/01/31 04:00:45;;;;;;;14.73;1.90;;;;;;;-146.48;100.00;60459.00;5304443;28;20028;-68
2022/01/31 04:03:16;;;;;;;23.00;1.92;;;;;;;-146.48;100.00;60459.00;5302881;28;20063;-68
2022/01/31 04:05:48;;;;;;;11.18;1.00;;;;;;;-146.48;100.00;60459.00;5304039;28;20024;-68
2022/01/31 04:08:19;;;;;;;15.25;1.70;;;;;;;-146.48;100.00;60459.00;5303100;28;20052;-68
2022/01/31 04:10:50;;;;;;;13.00;1.10;;;;;;;-146.48;100.00;60459.00;5303525;28;20024;-68
2022/01/31 04:13:22;;;;;;;13.30;1.70;;;;;;;-146.48;100.00;60459.00;5303435;28;20024;-68
2022/01/31 04:15:53;;;;;;;16.55;1.30;;;;;;;-146.48;100.00;60459.00;5302845;28;20024;-68
2022/01/31 04:18:25;;;;;;;11.55;2.35;;;;;;;-146.48;100.00;60459.00;5303490;28;20028;-68
2022/01/31 04:20:56;;;;;;;17.05;1.10;;;;;;;-146.48;100.00;60459.00;5303272;28;20032;-69
2022/01/31 04:23:29;;;;;;;16.55;2.13;;;;;;;-146.48;100.00;60459.00;5302391;28;20521;-67
2022/01/31 04:26:09;;;;;;;15.38;1.55;;;;;;;-146.48;100.00;60459.00;5302928;28;20054;-69
2022/01/31 04:33:52;;;;;;;14.07;0.93;;;;;;;-146.48;100.00;60459.00;5303869;28;20060;-68
2022/01/31 04:36:23;;;;;;;12.30;0.75;;;;;;;-146.48;100.00;60459.00;5303303;28;20024;-68
2022/01/31 04:38:54;;;;;;;16.45;1.02;;;;;;;-146.48;100.00;60459.00;5302452;28;20027;-68
2022/01/31 04:41:26;;;;;;;17.65;1.88;;;;;;;-146.48;100.00;60459.00;5303273;28;20016;-67
2022/01/31 04:44:03;;;;;;;14.27;1.02;;;;;;;-146.48;100.00;60459.00;5302135;28;20016;-68
2022/01/31 04:46:35;;;;;;;14.23;1.00;;;;;;;-146.48;100.00;60459.00;5303457;28;20020;-68
2022/01/31 04:49:07;;;;;;;15.63;1.20;;;;;;;-146.48;100.00;60459.00;5302670;28;20081;-68
2022/01/31 04:51:38;;;;;;;12.25;0.88;;;;;;;-146.48;100.00;60459.00;5302481;28;20086;-68
2022/01/31 04:54:10;;;;;;;15.05;1.05;;;;;;;-146.48;100.00;60459.00;5303044;28;20056;-68
2022/01/31 04:56:42;;;;;;;14.18;0.88;;;;;;;-146.48;100.00;60459.00;5303360;28;20032;-68
2022/01/31 04:59:14;;;;;;;14.70;1.27;;;;;;;-146.48;100.00;60459.00;5301833;28;20027;-68
2022/01/31 05:01:47;;;;;;;11.35;0.95;;;;;;;-146.48;100.00;60459.00;5303281;28;20103;-67
2022/01/31 05:04:18;;;;;;;17.00;1.77;;;;;;;-146.48;100.00;60459.00;5302504;28;20062;-68
2022/01/31 05:06:49;;;;;;;15.20;1.55;;;;;;;-146.48;100.00;60459.00;5301942;28;20052;-68
2022/01/31 05:09:20;;;;;;;12.25;0.95;;;;;;;-146.48;100.00;60459.00;5302584;28;20428;-68
2022/01/31 05:11:52;;;;;;;9.52;1.23;;;;;;;-146.48;100.00;60459.00;5302122;28;20098;-68
2022/01/31 05:14:23;;;;;;;13.15;1.30;;;;;;;-146.48;100.00;60459.00;5302458;28;20336;-67
2022/01/31 05:16:55;;;;;;;13.98;1.33;;;;;;;-146.48;100.00;60459.00;5302326;28;20573;-68
2022/01/31 05:19:26;;;;;;;13.93;0.85;;;;;;;-146.48;100.00;60459.00;5301763;28;20463;-67
2022/01/31 05:21:57;;;;;;;16.15;1.25;;;;;;;-146.48;100.00;60459.00;5302254;28;20032;-67
2022/01/31 05:24:29;;;;;;;15.35;1.20;;;;;;;-146.48;100.00;60459.00;5302784;28;20048;-68
2022/01/31 05:27:00;;;;;;;16.85;1.23;;;;;;;-146.48;100.00;60459.00;5301281;28;20020;-68
2022/01/31 05:29:31;;;;;;;15.05;1.33;;;;;;;-146.48;100.00;60459.00;5302482;28;20060;-67
2022/01/31 05:32:04;;;;;;;15.82;1.02;;;;;;;-146.48;100.00;60459.00;5301704;28;20079;-68
2022/01/31 05:34:35;;;;;;;12.68;1.83;;;;;;;-146.48;100.00;60459.00;5300929;28;20054;-68
2022/01/31 05:37:06;;;;;;;16.85;1.48;;;;;;;-146.48;100.00;60459.00;5302014;28;20415;-68
2022/01/31 05:39:39;;;;;;;15.15;1.35;;;;;;;-146.48;100.00;60459.00;5302516;28;20078;-69
2022/01/31 05:42:10;;;;;;;12.02;2.03;;;;;;;-146.48;100.00;60459.00;5301374;28;20108;-68
2022/01/31 05:44:43;;;;;;;13.00;2.28;;;;;;;-146.48;100.00;60459.00;5302695;28;20028;-68
2022/01/31 05:47:15;;;;;;;15.00;2.00;;;;;;;-146.48;100.00;60459.00;5301101;28;20024;-68
2022/01/31 05:49:46;;;;;;;20.58;2.13;;;;;;;-146.48;100.00;60459.00;5302514;28;20032;-68
2022/01/31 05:52:18;;;;;;;14.90;1.20;;;;;;;-146.48;100.00;60459.00;5301895;28;20494;-68
2022/01/31 05:54:49;;;;;;;14.77;1.13;;;;;;;-146.48;100.00;60459.00;5301820;28;20317;-70
2022/01/31 05:57:21;;;;;;;16.08;2.17;;;;;;;-146.48;100.00;60459.00;5301807;28;20070;-68
2022/01/31 05:59:52;;;;;;;18.35;1.10;;;;;;;-146.48;100.00;60459.00;5302202;28;20024;-68
2022/01/31 06:02:23;;;;;;;14.82;1.30;;;;;;;-146.48;100.00;60459.00;5301119;28;20016;-69
2022/01/31 06:04:55;;;;;;;13.40;1.48;;;;;;;-146.48;100.00;60459.00;5301925;28;20425;-68
2022/01/31 06:07:26;;;;;;;10.38;1.05;;;;;;;-146.48;100.00;60459.00;5301852;28;20491;-68
2022/01/31 06:09:58;;;;;;;13.13;1.40;;;;;;;-146.48;100.00;60459.00;5300909;28;20050;-69
2022/01/31 06:12:30;;;;;;;14.93;0.93;;;;;;;-146.48;100.00;60459.00;5302301;28;20078;-69
2022/01/31 06:15:01;;;;;;;12.05;1.60;;;;;;;-146.48;100.00;60459.00;5300724;28;20028;-69
2022/01/31 06:17:32;;;;;;;10.88;1.15;;;;;;;-146.48;100.00;60459.00;5302449;28;20024;-69
2022/01/31 06:20:05;;;;;;;15.15;1.48;;;;;;;-146.48;100.00;60459.00;5301685;28;20035;-68
2022/01/31 06:22:48;;;;;;;16.45;1.40;;;;;;;-146.48;100.00;60459.00;5301356;28;20020;-68
2022/01/31 06:25:20;;;;;;;13.35;1.55;;;;;;;-146.48;100.00;60459.00;5301586;28;20032;-69
2022/01/31 06:27:52;;;;;;;21.15;1.90;;;;;;;-146.48;100.00;60459.00;5302249;28;20027;-67
2022/01/31 06:30:25;;;;;;;13.63;1.15;;;;;;;-146.48;100.00;60459.00;5301250;28;20031;-68
2022/01/31 06:32:56;;;;;;;16.85;1.08;;;;;;;-146.48;100.00;60459.00;5301669;28;20024;-68
2022/01/31 06:35:27;;;;;;;15.43;0.95;;;;;;;-146.48;100.00;60459.00;5302037;28;20020;-68
2022/01/31 06:37:59;;;;;;;14.93;1.05;;;;;;;-146.48;100.00;60459.00;5300633;28;20031;-67
2022/01/31 06:40:30;;;;;;;12.52;0.82;;;;;;;-146.48;100.00;60459.00;5301984;28;20031;-68
2022/01/31 06:43:01;;;;;;;17.35;1.40;;;;;;;-146.48;100.00;60459.00;5301299;28;20073;-68
2022/01/31 06:45:33;;;;;;;11.50;1.63;;;;;;;-146.48;100.00;60459.00;5301750;28;20024;-68
2022/01/31 06:48:04;;;;;;;7.72;0.93;;;;;;;-146.48;100.00;60459.00;5304906;28;20040;-68
2022/01/31 06:50:35;;;;;;;14.20;0.80;;;;;;;-146.48;100.00;60459.00;5304747;28;20383;-68
2022/01/31 06:53:07;;;;;;;13.55;1.08;;;;;;;-146.48;100.00;60459.00;5304970;28;20085;-68
2022/01/31 06:55:39;;;;;;;17.10;1.90;;;;;;;-146.48;100.00;60459.00;5305527;28;20047;-68
2022/01/31 06:58:10;;;;;;;14.55;1.08;;;;;;;-146.48;100.00;60459.00;5304117;28;20107;-69
2022/01/31 07:00:42;;;;;;;16.38;1.05;;;;;;;-146.48;100.00;60459.00;5305335;28;20460;-68
2022/01/31 07:03:13;;;;;;;15.50;2.13;;;;;;;-146.48;100.00;60459.00;5304662;28;20024;-68
2022/01/31 07:05:45;;;;;;;13.95;1.33;;;;;;;-146.48;100.00;60459.00;5304661;28;20075;-68
2022/01/31 07:08:17;;;;;;;20.52;1.77;;;;;;;-146.48;100.00;60459.00;5304537;28;20089;-68
2022/01/31 07:10:52;;;;;;;15.00;2.30;;;;;;;-146.48;100.00;60459.00;5305316;28;20051;-68
2022/01/31 07:16:04;;;;;;;17.83;1.25;;;;;;;-146.48;100.00;60459.00;5304776;28;20032;-68
2022/01/31 07:18:37;;;;;;;12.38;1.45;;;;;;;-146.48;100.00;60459.00;5304301;28;20112;-68
2022/01/31 07:21:13;;;;;;;15.93;1.40;;;;;;;-146.48;100.00;60459.00;5304417;28;20491;-68
2022/01/31 07:26:21;;;;;;;15.10;2.22;;;;;;;-146.48;100.00;60459.00;5303658;28;20032;-68
2022/01/31 07:28:52;;;;;;;19.33;1.88;;;;;;;-146.48;100.00;60459.00;5304455;28;20031;-68
2022/01/31 07:31:24;;;;;;;15.93;1.27;;;;;;;-146.48;100.00;60459.00;5304435;28;20058;-68
2022/01/31 07:33:55;;;;;;;16.33;2.55;;;;;;;-146.48;100.00;60459.00;5303719;28;20024;-68
2022/01/31 07:36:26;;;;;;;11.15;1.27;;;;;;;-146.48;100.00;60459.00;5304411;28;20410;-68
2022/01/31 07:38:58;;;;;;;11.85;1.30;;;;;;;-146.48;100.00;60459.00;5304217;28;20051;-68
2022/01/31 07:41:29;;;;;;;17.25;1.40;;;;;;;-146.48;100.00;60459.00;5303851;28;20029;-68
2022/01/31 07:44:00;;;;;;;19.05;1.67;;;;;;;-146.48;100.00;60459.00;5303958;28;20024;-69
2022/01/31 07:46:31;;;;;;;20.65;2.28;;;;;;;-146.48;100.00;60459.00;5303689;28;20103;-68
2022/01/31 07:49:04;;;;;;;18.23;1.67;;;;;;;-146.48;100.00;60459.00;5303670;28;20031;-68
2022/01/31 07:51:40;;;;;;;20.15;1.65;;;;;;;-146.48;100.00;60459.00;5304671;28;20024;-68
2022/01/31 07:54:11;;;;;;;18.80;1.40;;;;;;;-146.48;100.00;60459.00;5303097;28;20020;-68
2022/01/31 07:56:43;;;;;;;20.83;1.98;;;;;;;-146.48;100.00;60459.00;5303917;28;20039;-68
2022/01/31 07:59:14;;;;;;;22.50;1.77;;;;;;;-146.48;100.00;60459.00;5302969;28;20024;-68
2022/01/31 08:01:45;;;;;;;23.55;2.67;;;;;;;-146.48;100.00;60459.00;5303590;28;20082;-68
2022/01/31 08:04:17;;;;;;;28.00;2.35;;;;;;;-146.48;100.00;60459.00;5303283;28;20057;-68
2022/01/31 08:06:48;;;;;;;22.08;2.15;;;;;;;-146.48;100.00;60459.00;5303942;28;20460;-68
2022/01/31 08:09:19;;;;;;;22.88;2.75;;;;;;;-146.48;100.00;60459.00;5296548;28;20036;-68
2022/01/31 08:11:51;;;;;;;18.70;1.88;;;;;;;-146.48;100.00;60459.00;5281626;28;20033;-68
2022/01/31 08:14:22;;;;;;;17.98;1.73;;;;;;;-146.48;100.00;60459.00;5282410;28;20028;-68
2022/01/31 08:16:53;;;;;;;17.63;2.40;;;;;;;-146.48;100.00;60459.00;5281991;28;20078;-68
2022/01/31 08:19:26;;;;;;;26.38;2.00;;;;;;;-146.48;100.00;60459.00;5281952;28;20056;-68
2022/01/31 08:21:57;;;;;;;23.23;3.03;;;;;;;-146.48;100.00;60459.00;5281553;28;20066;-70
2022/01/31 08:24:29;;;;;;;20.98;1.98;;;;;;;-146.48;100.00;60459.00;5282613;28;20479;-69
2022/01/31 08:27:00;;;;;;;20.55;2.65;;;;;;;-146.48;100.00;60459.00;5281811;28;20025;-69
2022/01/31 08:29:36;;;;;;;21.13;2.60;;;;;;;-146.48;100.00;60459.00;5281948;28;20031;-70
2022/01/31 08:32:17;;;;;;;22.35;2.92;;;;;;;-146.48;100.00;60459.00;5281910;28;20025;-70
2022/01/31 08:37:38;;;;;;;32.22;3.13;;;;;;;-146.48;100.00;60459.00;5281839;28;20115;-69
2022/01/31 08:40:10;;;;;;;26.90;2.47;;;;;;;-146.48;100.00;60459.00;5281991;28;20104;-70
2022/01/31 08:42:42;;;;;;;20.23;1.95;;;;;;;-146.48;100.00;60459.00;5281751;28;20051;-70
2022/01/31 08:45:13;;;;;;;19.70;1.98;;;;;;;-146.48;100.00;60459.00;5282497;28;20030;-70
2022/01/31 08:47:44;;;;;;;22.35;2.33;;;;;;;-146.48;100.00;60459.00;5303087;28;20036;-70
2022/01/31 08:50:16;;;;;;;28.85;2.63;;;;;;;-146.48;100.00;60459.00;5302187;28;20517;-70
2022/01/31 08:52:47;;;;;;;29.70;2.92;;;;;;;-146.48;100.00;60459.00;5303246;28;20032;-70
2022/01/31 08:55:20;;;;;;;26.15;3.10;;;;;;;-146.48;100.00;60459.00;5302781;28;20035;-70
2022/01/31 08:57:55;;;;;;;20.13;2.40;;;;;;;-146.48;100.00;60459.00;5302372;28;20028;-69
2022/01/31 09:00:34;;;;;;;24.13;2.95;;;;;;;-146.48;100.00;60459.00;5303180;28;20561;-69
2022/01/31 09:05:57;;;;;;;22.00;2.85;;;;;;;-146.48;100.00;60459.00;5278933;28;20035;-69
2022/01/31 09:08:28;;;;;;;21.80;2.72;;;;;;;-146.48;100.00;60459.00;5301834;28;20502;-69
2022/01/31 09:11:00;;;;;;;23.38;1.98;;;;;;;-146.48;100.00;60459.00;5301442;28;20486;-69
2022/01/31 09:13:32;;;;;;;26.52;3.50;;;;;;;-146.48;100.00;60459.00;5303168;28;20039;-70
2022/01/31 09:16:04;;;;;;;23.98;1.83;;;;;;;-146.48;100.00;60459.00;5302452;28;20028;-71
2022/01/31 09:18:36;;;;;;;23.98;3.25;;;;;;;-146.48;100.00;60459.00;5302181;28;20036;-70
2022/01/31 09:21:08;;;;;;;29.67;2.92;;;;;;;-146.48;100.00;60459.00;5302579;28;20024;-70
2022/01/31 09:23:39;;;;;;;25.17;2.00;;;;;;;-146.48;100.00;60459.00;5303110;28;20035;-70
2022/01/31 09:26:10;;;;;;;21.10;2.25;;;;;;;-146.48;100.00;60459.00;5301609;28;20046;-69
2022/01/31 09:28:42;;;;;;;26.38;2.35;;;;;;;-146.48;100.00;60459.00;5302617;28;20032;-70
2022/01/31 09:31:15;;;;;;;21.67;2.10;;;;;;;-146.48;100.00;60459.00;5302140;28;20424;-71
2022/01/31 09:33:47;;;;;;;20.50;2.22;;;;;;;-146.48;100.00;60459.00;5302156;28;20420;-70
2022/01/31 09:36:18;;;;;;;22.38;2.53;;;;;;;-146.48;100.00;60459.00;5302180;28;20081;-70
2022/01/31 09:38:50;;;;;;;29.70;2.92;;;;;;;-146.48;100.00;60459.00;5302654;28;20028;-71
2022/01/31 09:41:24;;;;;;;28.90;3.90;;;;;;;-146.48;100.00;60459.00;5301329;28;20458;-69
2022/01/31 09:44:08;;;;;;;29.13;2.20;;;;;;;-146.48;100.00;60459.00;5302252;28;20024;-70
2022/01/31 09:46:53;;;;;;;23.35;3.13;;;;;;;-146.48;100.00;60459.00;5301903;28;20405;-70
2022/01/31 09:49:24;;;;;;;30.17;3.17;;;;;;;-146.48;100.00;60459.00;5302319;28;20478;-70
2022/01/31 09:51:55;;;;;;;21.50;3.40;;;;;;;-146.48;100.00;60459.00;5302292;28;20099;-70
2022/01/31 09:54:28;;;;;;;27.25;3.00;;;;;;;-146.48;100.00;60459.00;5298533;28;20587;-70
2022/01/31 09:56:59;;;;;;;28.60;2.67;;;;;;;-146.48;100.00;60459.00;5293452;28;20475;-71
2022/01/31 09:59:30;;;;;;;32.97;3.85;;;;;;;-146.48;100.00;60459.00;5302503;28;20028;-69
2022/01/31 10:02:11;;;;;;;25.75;2.97;;;;;;;-146.48;100.00;60459.00;5300922;28;20078;-70
2022/01/31 10:04:45;;;;;;;32.70;3.50;;;;;;;-146.48;100.00;60459.00;5302337;28;20046;-69
2022/01/31 10:07:17;;;;;;;39.67;5.35;;;;;;;-146.48;100.00;60459.00;5300920;28;20486;-70
2022/01/31 10:09:50;;;;;;;28.40;2.55;;;;;;;-146.48;100.00;60459.00;5302327;28;20024;-70
2022/01/31 10:16:25;;;;;;;30.98;3.88;;;;;;;-146.48;100.00;60459.00;5301945;28;20099;-70
2022/01/31 10:18:11;;;;;;;41.63;4.90;;;;;;;-146.48;100.00;60459.00;5302030;28;20032;-70
2022/01/31 10:20:42;;;;;;;43.17;4.45;;;;;;;-146.48;100.00;60459.00;5303233;28;20020;-69
2022/01/31 10:23:15;;;;;;;33.58;4.15;;;;;;;-146.48;100.00;60459.00;5304810;28;20360;-70
2022/01/31 10:25:46;;;;;;;33.67;3.67;;;;;;;-146.48;100.00;60459.00;5305826;28;20072;-70
2022/01/31 10:28:20;;;;;;;37.15;3.92;;;;;;;-146.48;100.00;60459.00;5304810;28;20032;-70
2022/01/31 10:30:52;;;;;;;36.95;4.22;;;;;;;-146.48;100.00;60459.00;5305904;28;20727;-69
2022/01/31 10:33:27;;;;;;;38.08;5.18;;;;;;;-146.48;100.00;60459.00;5305779;28;20124;-70
2022/01/31 10:36:00;;;;;;;36.60;4.90;;;;;;;-146.48;100.00;60459.00;5304547;28;20021;-70
2022/01/31 10:38:37;;;;;;;41.78;5.88;;;;;;;-146.48;100.00;60459.00;5300605;28;20035;-69
2022/01/31 10:45:25;;;;;;;41.90;4.43;;;;;;;-146.48;100.00;60459.00;5283621;28;20496;-69
2022/01/31 10:53:11;;;;;;;47.90;6.28;;;;;;;-146.48;100.00;60459.00;5284171;28;20496;-69
2022/01/31 10:55:53;;;;;;;31.08;5.43;;;;;;;-146.48;100.00;60459.00;5284682;28;20028;-69
2022/01/31 10:58:24;;;;;;;36.95;4.55;;;;;;;-146.48;100.00;60459.00;5283346;28;20021;-69
2022/01/31 11:01:11;;;;;;;44.50;5.50;;;;;;;-146.48;100.00;60459.00;5284346;28;20033;-70
2022/01/31 11:03:45;;;;;;;30.02;3.13;;;;;;;-146.48;100.00;60459.00;5292237;28;20384;-70
2022/01/31 11:06:16;;;;;;;37.28;4.35;;;;;;;-146.48;100.00;60459.00;5296086;28;20268;-69
2022/01/31 11:08:47;;;;;;;29.08;3.95;;;;;;;-146.48;100.00;60459.00;5283632;28;20135;-69
2022/01/31 11:11:19;;;;;;;36.85;4.43;;;;;;;-146.48;100.00;60459.00;5282952;28;20461;-69
2022/01/31 11:13:52;;;;;;;33.75;4.22;;;;;;;-146.48;100.00;60459.00;5295330;28;20020;-69
2022/01/31 11:16:24;;;;;;;31.33;3.75;;;;;;;-146.48;100.00;60459.00;5304587;28;20028;-69
2022/01/31 11:19:06;;;;;;;33.97;3.90;;;;;;;-146.48;100.00;60459.00;5304367;28;20027;-69
2022/01/31 11:21:40;;;;;;;32.17;4.70;;;;;;;-146.48;100.00;60459.00;5304646;28;20038;-69
2022/01/31 11:24:25;;;;;;;39.55;4.35;;;;;;;-146.48;100.00;60459.00;5303456;28;20570;-69
2022/01/31 11:26:58;;;;;;;38.75;4.90;;;;;;;-146.48;100.00;60459.00;5303678;28;20024;-69
2022/01/31 11:29:32;;;;;;;48.72;6.35;;;;;;;-146.48;100.00;60459.00;5301058;28;20068;-69
2022/01/31 11:32:04;;;;;;;34.78;4.15;;;;;;;-146.48;100.00;60459.00;5302071;28;20088;-70
2022/01/31 11:34:39;;;;;;;38.80;4.32;;;;;;;-146.48;100.00;60459.00;5304325;28;20032;-69
2022/01/31 11:37:13;;;;;;;35.58;4.10;;;;;;;-146.48;100.00;60459.00;5303929;28;20024;-70
2022/01/31 11:39:51;;;;;;;30.35;5.15;;;;;;;-146.48;100.00;60459.00;5304010;28;20024;-70
2022/01/31 11:42:24;;;;;;;34.45;4.90;;;;;;;-146.48;100.00;60459.00;5304049;28;20032;-70
2022/01/31 11:45:02;;;;;;;38.58;4.00;;;;;;;-146.48;100.00;60459.00;5301332;28;20024;-69
2022/01/31 11:47:36;;;;;;;42.88;5.65;;;;;;;-146.48;100.00;60459.00;5304460;28;20113;-69
2022/01/31 11:50:12;;;;;;;36.33;4.30;;;;;;;-146.48;100.00;60459.00;5304045;28;20471;-69
2022/01/31 11:52:55;;;;;;;33.78;4.13;;;;;;;-146.48;100.00;60459.00;5303836;28;20019;-69
2022/01/31 11:55:33;;;;;;;38.90;5.20;;;;;;;-146.48;100.00;60459.00;5304398;28;20042;-70